| time (UTC) | temp F | wind direction | speed MPH | gust MPH | rain 1hr in | rain 24hr in | rain mn in | humidity % | barometer mb |
| 20260506043028 | 48 | 0 | 2.0 | 12.0 | 0.00 | 0.00 | 0.00 | 77 | 1014.4 |
| 20260506041540 | 48 | 0 | 1.0 | 10.0 | 0.00 | 0.00 | 0.00 | 76 | 1014.7 |
| 20260506040031 | 48 | 309 | 3.0 | 10.0 | 0.00 | 0.00 | 0.00 | 74 | 1014.9 |
| 20260506034530 | 49 | 62 | 2.0 | 9.0 | 0.00 | 0.03 | 0.00 | 75 | 1014.6 |
| 20260506033029 | 49 | 293 | 1.0 | 8.0 | 0.00 | 0.03 | 0.00 | 74 | 1014.7 |
| 20260506031534 | 49 | 17 | 1.0 | 5.0 | 0.00 | 0.03 | 0.00 | 73 | 1014.2 |
| 20260506030030 | 49 | 55 | 2.0 | 9.0 | 0.00 | 0.03 | 0.00 | 70 | 1013.6 |
| 20260506024533 | 49 | 35 | 1.0 | 5.0 | 0.00 | 0.03 | 0.00 | 72 | 1013.1 |
| 20260506023033 | 49 | 13 | 2.0 | 7.0 | 0.00 | 0.03 | 0.00 | 72 | 1012.8 |
| 20260506021529 | 49 | 63 | 1.0 | 9.0 | 0.00 | 0.03 | 0.00 | 74 | 1012.2 |
| 20260506020030 | 49 | 23 | 2.0 | 9.0 | 0.00 | 0.03 | 0.00 | 73 | 1012.7 |
| 20260506014529 | 49 | 79 | 2.0 | 9.0 | 0.00 | 0.03 | 0.00 | 72 | 1012.5 |
| 20260506013029 | 50 | 52 | 3.0 | 13.0 | 0.00 | 0.03 | 0.00 | 71 | 1011.8 |
| 20260506011530 | 50 | 56 | 3.0 | 14.0 | 0.00 | 0.03 | 0.00 | 70 | 1011.9 |
| 20260506010031 | 50 | 24 | 4.0 | 12.0 | 0.00 | 0.03 | 0.00 | 70 | 1011.6 |
| 20260506004537 | 50 | 355 | 5.0 | 15.0 | 0.00 | 0.03 | 0.00 | 70 | 1011.2 |
| 20260506003030 | 50 | 309 | 5.0 | 15.0 | 0.00 | 0.03 | 0.00 | 72 | 1010.9 |
| 20260506001529 | 50 | 58 | 3.0 | 17.0 | 0.00 | 0.03 | 0.00 | 73 | 1011.1 |
| 20260506000033 | 50 | 69 | 4.0 | 11.0 | 0.00 | 0.03 | 0.00 | 73 | 1011.1 |
| 20260505234601 | 50 | 17 | 4.0 | 13.0 | 0.00 | 0.03 | 0.00 | 72 | 1011.2 |
| 20260505233032 | 50 | 74 | 4.0 | 14.0 | 0.00 | 0.03 | 0.00 | 72 | 1011.0 |
| 20260505231531 | 50 | 9 | 4.0 | 11.0 | 0.00 | 0.03 | 0.00 | 74 | 1010.9 |
| 20260505230029 | 50 | 53 | 4.0 | 15.0 | 0.00 | 0.03 | 0.00 | 73 | 1010.7 |
| 20260505224533 | 51 | 83 | 5.0 | 14.0 | 0.00 | 0.03 | 0.00 | 72 | 1010.5 |
| 20260505223030 | 51 | 59 | 4.0 | 15.0 | 0.00 | 0.03 | 0.00 | 72 | 1010.4 |
| 20260505221530 | 51 | 111 | 4.0 | 21.0 | 0.00 | 0.03 | 0.00 | 69 | 1010.1 |
| 20260505220032 | 51 | 77 | 7.0 | 23.0 | 0.00 | 0.03 | 0.00 | 68 | 1010.1 |
| 20260505214537 | 52 | 24 | 7.0 | 19.0 | 0.00 | 0.03 | 0.00 | 68 | 1010.0 |
| 20260505213028 | 52 | 68 | 2.0 | 13.0 | 0.00 | 0.03 | 0.00 | 70 | 1010.1 |
| 20260505211528 | 52 | 305 | 8.0 | 20.0 | 0.00 | 0.03 | 0.00 | 69 | 1010.1 |
| 20260505210030 | 52 | 51 | 4.0 | 18.0 | 0.00 | 0.03 | 0.00 | 70 | 1010.2 |
| 20260505204530 | 52 | 360 | 5.0 | 14.0 | 0.00 | 0.03 | 0.00 | 69 | 1010.1 |
| 20260505203029 | 52 | 44 | 6.0 | 15.0 | 0.00 | 0.03 | 0.00 | 67 | 1010.2 |
| 20260505201531 | 53 | 98 | 5.0 | 14.0 | 0.00 | 0.03 | 0.00 | 67 | 1010.0 |
| 20260505200034 | 53 | 53 | 5.0 | 15.0 | 0.00 | 0.03 | 0.00 | 67 | 1009.9 |
| 20260505194528 | 53 | 56 | 2.0 | 17.0 | 0.00 | 0.03 | 0.00 | 69 | 1010.1 |
| 20260505193031 | 53 | 69 | 6.0 | 19.0 | 0.00 | 0.03 | 0.00 | 67 | 1009.6 |
| 20260505191529 | 53 | 24 | 3.0 | 15.0 | 0.00 | 0.03 | 0.00 | 69 | 1009.6 |
| 20260505190028 | 53 | 42 | 4.0 | 18.0 | 0.00 | 0.03 | 0.00 | 67 | 1009.4 |
| 20260505184529 | 53 | 60 | 5.0 | 15.0 | 0.00 | 0.03 | 0.00 | 67 | 1009.4 |
| 20260505183041 | 53 | 96 | 6.0 | 18.0 | 0.00 | 0.03 | 0.00 | 68 | 1009.2 |
| 20260505181529 | 54 | 53 | 6.0 | 20.0 | 0.00 | 0.03 | 0.00 | 67 | 1008.8 |
| 20260505180029 | 54 | 321 | 4.0 | 15.0 | 0.00 | 0.03 | 0.00 | 67 | 1009.0 |
| 20260505174528 | 54 | 355 | 4.0 | 13.0 | 0.00 | 0.03 | 0.00 | 68 | 1008.8 |
| 20260505173034 | 54 | 50 | 4.0 | 17.0 | 0.00 | 0.03 | 0.00 | 69 | 1008.6 |
| 20260505171533 | 54 | 63 | 2.0 | 15.0 | 0.00 | 0.03 | 0.00 | 71 | 1008.5 |
| 20260505170033 | 54 | 331 | 4.0 | 13.0 | 0.00 | 0.03 | 0.00 | 73 | 1008.2 |
| 20260505164529 | 54 | 171 | 4.0 | 12.0 | 0.00 | 0.03 | 0.00 | 76 | 1007.9 |
| 20260505163027 | 54 | 24 | 4.0 | 18.0 | 0.00 | 0.03 | 0.00 | 78 | 1007.8 |
| 20260505161530 | 53 | 40 | 5.0 | 16.0 | 0.00 | 0.03 | 0.00 | 79 | 1007.5 |
| 20260505153030 | 54 | 30 | 4.0 | 14.0 | 0.00 | 0.03 | 0.00 | 81 | 1007.5 |
| 20260505151529 | 54 | 77 | 3.0 | 11.0 | 0.00 | 0.03 | 0.00 | 80 | 1007.1 |
| 20260505124528 | 60 | 13 | 4.0 | 12.0 | 0.00 | 0.03 | 0.00 | 79 | 1005.3 |
| 20260505123028 | 61 | 290 | 4.0 | 12.0 | 0.00 | 0.03 | 0.00 | 78 | 1005.4 |
| 20260505121529 | 62 | 65 | 4.0 | 13.0 | 0.00 | 0.03 | 0.00 | 78 | 1004.8 |
| 20260505120030 | 63 | 101 | 0.0 | 7.0 | 0.00 | 0.03 | 0.00 | 81 | 1004.6 |
| 20260505114530 | 63 | 26 | 2.0 | 9.0 | 0.00 | 0.03 | 0.00 | 81 | 1004.4 |
| 20260505113032 | 62 | 88 | 5.0 | 13.0 | 0.00 | 0.03 | 0.00 | 81 | 1004.2 |
| 20260505111529 | 62 | 61 | 2.0 | 9.0 | 0.00 | 0.03 | 0.00 | 81 | 1004.2 |
| 20260505101529 | 65 | 313 | 2.0 | 11.0 | 0.00 | 0.03 | 0.00 | 76 | 1003.4 |
| 20260505100030 | 65 | 146 | 9.0 | 17.0 | 0.00 | 0.03 | 0.00 | 76 | 1002.5 |
| 20260505094531 | 64 | 128 | 9.0 | 14.0 | 0.00 | 0.03 | 0.00 | 78 | 1002.5 |
| 20260505093030 | 64 | 130 | 8.0 | 14.0 | 0.00 | 0.03 | 0.00 | 77 | 1002.8 |
| 20260505091530 | 64 | 135 | 5.0 | 12.0 | 0.00 | 0.03 | 0.00 | 77 | 1002.9 |
| 20260505090031 | 64 | 124 | 5.0 | 12.0 | 0.00 | 0.03 | 0.00 | 75 | 1003.0 |
| 20260505084537 | 65 | 111 | 4.0 | 11.0 | 0.00 | 0.03 | 0.00 | 73 | 1003.0 |
| 20260505083030 | 64 | 104 | 5.0 | 10.0 | 0.00 | 0.03 | 0.00 | 74 | 1002.9 |
| 20260505081529 | 64 | 134 | 4.0 | 11.0 | 0.00 | 0.03 | 0.00 | 75 | 1002.6 |
| 20260505080028 | 64 | 135 | 5.0 | 10.0 | 0.00 | 0.03 | 0.00 | 75 | 1002.7 |
| 20260505074531 | 63 | 132 | 5.0 | 10.0 | 0.00 | 0.03 | 0.00 | 75 | 1002.7 |
| 20260505073038 | 63 | 119 | 5.0 | 13.0 | 0.00 | 0.03 | 0.00 | 75 | 1002.7 |
| 20260505071530 | 63 | 107 | 5.0 | 13.0 | 0.00 | 0.03 | 0.00 | 75 | 1003.3 |
| 20260505070038 | 64 | 112 | 2.0 | 12.0 | 0.00 | 0.03 | 0.00 | 76 | 1003.5 |
| 20260505064533 | 64 | 131 | 4.0 | 10.0 | 0.00 | 0.03 | 0.00 | 74 | 1003.8 |
| 20260505063030 | 66 | 120 | 6.0 | 11.0 | 0.00 | 0.03 | 0.00 | 71 | 1003.8 |
| 20260505061536 | 67 | 134 | 3.0 | 12.0 | 0.00 | 0.03 | 0.00 | 67 | 1004.2 |
| 20260505060031 | 66 | 112 | 1.0 | 12.0 | 0.00 | 0.03 | 0.00 | 69 | 1004.6 |
| 20260505054535 | 65 | 95 | 2.0 | 13.0 | 0.00 | 0.03 | 0.00 | 69 | 1005.3 |
| 20260505053030 | 65 | 70 | 2.0 | 10.0 | 0.00 | 0.03 | 0.00 | 70 | 1005.4 |
| 20260505051532 | 66 | 96 | 2.0 | 10.0 | 0.00 | 0.03 | 0.00 | 75 | 1005.6 |